No particular awareness of the weather is required.    There are no Weather-warnings


Meteo18 Weather Cam more information Meteo18 Weather Cam


Thunder radar more information blitzortung!


Rain radar more information rain snow radar


Visit our other weather sites:

Template documentation
and downloads

And another site



Weather Underground History page Text

Daily Summary for November 10, 2017 Units:  English    Metric   Both
« Previous Day
Next Day »
Daily Weekly Monthly Yearly Custom
  High: Low: Average:
Temperature: TemperatureC °F 4.8 °F 8.5 °F
Dew Point: DewpointC °F 4.2 °F 7.6 °F
Humidity: Humidity % 85 % 94 %
Wind Speed: WindSpeedKMH mph 0.0 mph 6.7 mph
Wind Gust: WindSpeedGustKMH mph - -
Wind:- - West
Pressure: PressurehPa in 1023.2 in -
Precipitation: 0.5 in    
Historical Graphs
 
 
Tabular Data for November 10, 2017
Time Temperature Dew Point Pressure Wind Wind Speed Wind Gust Humidity Rainfall Rate (Hourly)
TemperatureC °F DewpointC °F PressurehPa in Calm     Humidity % HourlyPrecipMM in
00:02 5.2 °F 4.3 °F 1028.0 in Calm   4.8 mph 94 % 0.0 in
00:07 5.2 °F 4.3 °F 1028.0 in Calm   1.6 mph 94 % 0.0 in
00:17 5.3 °F 4.4 °F 1028.0 in Calm   1.6 mph 94 % 0.0 in
00:22 5.2 °F 4.3 °F 1028.3 in Calm   1.6 mph 94 % 0.0 in
00:32 5.4 °F 4.7 °F 1028.3 in Calm   4.8 mph 95 % 0.0 in
00:42 5.4 °F 4.7 °F 1028.0 in Calm   4.8 mph 95 % 0.0 in
00:47 5.4 °F 4.7 °F 1028.3 in Calm   1.6 mph 95 % 0.0 in
00:52 5.5 °F 4.8 °F 1028.3 in WSW 3.2 mph 3.2 mph 95 % 0.0 in
00:57 5.6 °F 4.9 °F 1028.0 in SSW 1.6 mph 6.4 mph 95 % 0.0 in
01:02 5.6 °F 4.9 °F 1028.3 in SW 3.2 mph 6.4 mph 95 % 0.0 in
01:07 5.6 °F 4.9 °F 1028.3 in WSW 1.6 mph 8.0 mph 95 % 0.0 in
01:12 5.6 °F 4.9 °F 1028.3 in Calm   8.0 mph 95 % 0.0 in
01:17 5.6 °F 4.9 °F 1028.3 in SW 1.6 mph 3.2 mph 95 % 0.0 in
01:22 5.7 °F 5.0 °F 1028.3 in SW 3.2 mph 4.8 mph 95 % 0.0 in
01:27 5.7 °F 5.0 °F 1028.3 in SSW 1.6 mph 4.8 mph 95 % 0.0 in
01:32 5.7 °F 5.0 °F 1028.3 in SSW 3.2 mph 4.8 mph 95 % 0.0 in
01:37 5.6 °F 4.9 °F 1028.3 in SSW 3.2 mph 6.4 mph 95 % 0.0 in
01:42 5.6 °F 4.9 °F 1028.0 in SW 4.8 mph 6.4 mph 95 % 0.0 in
01:47 5.6 °F 4.9 °F 1028.0 in South 3.2 mph 6.4 mph 95 % 0.0 in
01:52 5.5 °F 4.8 °F 1028.0 in South 3.2 mph 6.4 mph 95 % 0.0 in
01:57 5.5 °F 4.8 °F 1028.0 in SSW 1.6 mph 6.4 mph 95 % 0.0 in
02:02 5.4 °F 4.7 °F 1028.3 in Calm   6.4 mph 95 % 0.0 in
02:07 5.4 °F 4.7 °F 1028.0 in SSW 1.6 mph 4.8 mph 95 % 0.0 in
02:12 5.4 °F 4.7 °F 1027.7 in SSE 1.6 mph 3.2 mph 95 % 0.0 in
02:17 5.4 °F 4.7 °F 1027.7 in SSW 3.2 mph 3.2 mph 95 % 0.0 in
02:22 5.3 °F 4.6 °F 1027.3 in SSW 8.0 mph 8.0 mph 95 % 0.0 in
02:27 5.3 °F 4.6 °F 1027.0 in South 4.8 mph 8.0 mph 95 % 0.0 in
02:32 5.2 °F 4.5 °F 1027.0 in SW 4.8 mph 8.0 mph 95 % 0.0 in
02:37 5.1 °F 4.5 °F 1027.0 in SW 6.4 mph 9.7 mph 96 % 0.0 in
02:42 5.1 °F 4.5 °F 1027.3 in Calm   9.7 mph 96 % 0.0 in
02:47 5.2 °F 4.6 °F 1027.3 in Calm   8.0 mph 96 % 0.0 in
02:52 5.2 °F 4.6 °F 1027.3 in Calm   6.4 mph 96 % 0.0 in
02:57 5.2 °F 4.6 °F 1027.3 in SSW 3.2 mph 6.4 mph 96 % 0.0 in
03:02 5.2 °F 4.6 °F 1027.0 in SW 1.6 mph 9.7 mph 96 % 0.0 in
03:07 5.2 °F 4.6 °F 1027.0 in South 6.4 mph 9.7 mph 96 % 0.0 in
03:12 4.8 °F 4.2 °F 1027.0 in SSW 1.6 mph 9.7 mph 96 % 0.0 in
09:07 6.4 °F 6.0 °F 1025.3 in SW 12.9 mph 14.5 mph 97 % 0.0 in
09:12 6.4 °F 6.0 °F 1025.3 in SSW 9.7 mph 20.9 mph 97 % 0.0 in
09:17 6.5 °F 6.1 °F 1025.3 in SW 12.9 mph 20.9 mph 97 % 0.0 in
09:27 6.7 °F 6.1 °F 1025.3 in WSW 6.4 mph 24.1 mph 96 % 0.0 in
09:32 6.7 °F 6.1 °F 1025.6 in WSW 14.5 mph 24.1 mph 96 % 0.0 in
09:42 6.8 °F 6.2 °F 1025.6 in SW 17.7 mph 22.5 mph 96 % 0.0 in
09:47 6.8 °F 6.2 °F 1025.6 in West 6.4 mph 22.5 mph 96 % 0.0 in
09:52 6.8 °F 6.2 °F 1025.6 in Calm   22.5 mph 96 % 0.0 in
09:57 6.9 °F 6.3 °F 1025.6 in SW 12.9 mph 20.9 mph 96 % 0.0 in
10:02 6.9 °F 6.3 °F 1025.6 in WSW 14.5 mph 19.3 mph 96 % 0.0 in
10:12 6.9 °F 6.3 °F 1025.6 in WSW 4.8 mph 19.3 mph 96 % 0.0 in
10:17 7.0 °F 6.4 °F 1025.3 in SW 6.4 mph 19.3 mph 96 % 0.0 in
10:27 7.2 °F 6.6 °F 1025.3 in WSW 11.3 mph 19.3 mph 96 % 0.0 in
10:32 7.2 °F 6.6 °F 1025.3 in WSW 6.4 mph 20.9 mph 96 % 0.0 in
10:37 7.2 °F 6.6 °F 1025.3 in WSW 6.4 mph 20.9 mph 96 % 0.0 in
10:42 7.2 °F 6.6 °F 1025.3 in WSW 3.2 mph 20.9 mph 96 % 0.0 in
10:47 7.3 °F 6.7 °F 1025.6 in SW 3.2 mph 17.7 mph 96 % 0.0 in
10:57 7.3 °F 6.9 °F 1025.3 in SW 11.3 mph 17.7 mph 97 % 0.0 in
11:02 7.3 °F 6.9 °F 1025.3 in SSW 11.3 mph 17.7 mph 97 % 0.0 in
11:12 7.4 °F 7.0 °F 1025.6 in West 8.0 mph 17.7 mph 97 % 0.0 in
11:17 7.5 °F 7.1 °F 1025.6 in WSW 11.3 mph 19.3 mph 97 % 0.0 in
11:22 7.5 °F 7.1 °F 1025.3 in WSW 8.0 mph 19.3 mph 97 % 0.0 in
11:32 7.6 °F 7.2 °F 1025.6 in SW 4.8 mph 19.3 mph 97 % 0.0 in
11:37 7.6 °F 7.2 °F 1025.6 in SW 4.8 mph 16.1 mph 97 % 0.0 in
11:42 7.6 °F 7.2 °F 1025.6 in WSW 11.3 mph 16.1 mph 97 % 0.0 in
11:47 7.6 °F 7.2 °F 1025.6 in SW 4.8 mph 16.1 mph 97 % 0.0 in
11:52 7.7 °F 7.3 °F 1025.6 in WSW 9.7 mph 14.5 mph 97 % 0.0 in
11:57 7.7 °F 7.3 °F 1025.3 in SSW 4.8 mph 12.9 mph 97 % 0.0 in
12:02 7.7 °F 7.3 °F 1025.3 in SW 8.0 mph 14.5 mph 97 % 0.0 in
12:07 7.7 °F 7.3 °F 1025.3 in WSW 1.6 mph 17.7 mph 97 % 0.0 in
12:12 7.8 °F 7.4 °F 1025.3 in WSW 3.2 mph 17.7 mph 97 % 0.0 in
12:17 7.8 °F 7.4 °F 1025.3 in West 4.8 mph 17.7 mph 97 % 0.0 in
12:22 7.9 °F 7.5 °F 1025.3 in West 3.2 mph 17.7 mph 97 % 0.0 in
12:27 7.9 °F 7.5 °F 1024.9 in WSW 9.7 mph 17.7 mph 97 % 0.0 in
12:32 7.9 °F 7.5 °F 1024.9 in WSW 6.4 mph 14.5 mph 97 % 0.0 in
12:42 8.1 °F 7.7 °F 1024.9 in SW 6.4 mph 14.5 mph 97 % 0.0 in
12:47 8.1 °F 7.7 °F 1024.6 in WSW 8.0 mph 14.5 mph 97 % 0.0 in
12:52 8.2 °F 7.8 °F 1024.9 in WNW 4.8 mph 14.5 mph 97 % 0.0 in
12:57 8.3 °F 7.9 °F 1024.9 in WNW 8.0 mph 14.5 mph 97 % 0.0 in
13:02 8.3 °F 7.9 °F 1024.6 in West 4.8 mph 14.5 mph 97 % 0.0 in
13:07 8.3 °F 7.9 °F 1024.6 in SSW 3.2 mph 16.1 mph 97 % 0.0 in
13:12 8.3 °F 7.9 °F 1024.6 in WSW 3.2 mph 16.1 mph 97 % 0.0 in
13:17 8.3 °F 7.9 °F 1024.6 in SW 4.8 mph 17.7 mph 97 % 0.0 in
13:22 8.4 °F 8.0 °F 1024.3 in West 12.9 mph 17.7 mph 97 % 0.0 in
13:27 8.4 °F 8.0 °F 1024.3 in WSW 8.0 mph 17.7 mph 97 % 0.0 in
13:32 8.4 °F 8.0 °F 1024.3 in West 12.9 mph 17.7 mph 97 % 0.0 in
13:37 8.4 °F 8.0 °F 1024.3 in SW 9.7 mph 19.3 mph 97 % 0.0 in
13:42 8.5 °F 8.1 °F 1024.3 in SW 8.0 mph 19.3 mph 97 % 0.0 in
13:52 8.7 °F 8.3 °F 1023.9 in WSW 17.7 mph 19.3 mph 97 % 0.0 in
13:57 8.7 °F 8.3 °F 1023.9 in SW 9.7 mph 17.7 mph 97 % 0.0 in
14:02 8.8 °F 8.3 °F 1023.9 in West 8.0 mph 17.7 mph 97 % 0.0 in
14:07 8.8 °F 8.3 °F 1023.9 in SW 9.7 mph 17.7 mph 97 % 0.0 in
14:12 8.8 °F 8.3 °F 1023.9 in WSW 8.0 mph 17.7 mph 97 % 0.0 in
14:17 8.9 °F 8.4 °F 1023.9 in West 11.3 mph 22.5 mph 97 % 0.0 in
14:22 9.1 °F 8.6 °F 1023.6 in West 3.2 mph 22.5 mph 97 % 0.0 in
14:27 9.1 °F 8.6 °F 1023.6 in West 14.5 mph 22.5 mph 97 % 0.0 in
14:32 9.1 °F 8.5 °F 1023.6 in West 20.9 mph 20.9 mph 96 % 0.0 in
14:37 9.2 °F 8.6 °F 1023.6 in West 8.0 mph 20.9 mph 96 % 0.0 in
14:42 9.2 °F 8.6 °F 1023.6 in West 14.5 mph 24.1 mph 96 % 0.0 in
14:47 9.2 °F 8.6 °F 1023.6 in West 12.9 mph 24.1 mph 96 % 0.0 in
14:52 9.2 °F 8.6 °F 1023.6 in West 9.7 mph 24.1 mph 96 % 0.0 in
14:57 9.3 °F 8.7 °F 1023.2 in WNW 14.5 mph 22.5 mph 96 % 0.0 in
15:02 9.3 °F 8.7 °F 1023.2 in West 17.7 mph 22.5 mph 96 % 0.0 in
15:07 9.3 °F 8.7 °F 1023.2 in West 8.0 mph 24.1 mph 96 % 0.0 in
15:12 9.4 °F 8.8 °F 1023.2 in WSW 11.3 mph 24.1 mph 96 % 0.0 in
15:17 9.4 °F 8.8 °F 1023.2 in WSW 12.9 mph 24.1 mph 96 % 0.0 in
15:22 9.4 °F 8.6 °F 1023.2 in WNW 14.5 mph 22.5 mph 95 % 0.0 in
15:27 9.5 °F 8.7 °F 1023.6 in West 9.7 mph 22.5 mph 95 % 0.0 in
15:32 9.6 °F 8.8 °F 1023.6 in WSW 12.9 mph 22.5 mph 95 % 0.0 in
15:37 9.6 °F 8.8 °F 1023.6 in West 9.7 mph 24.1 mph 95 % 0.0 in
15:42 9.7 °F 8.9 °F 1023.6 in West 9.7 mph 24.1 mph 95 % 0.0 in
15:47 9.7 °F 8.9 °F 1023.6 in SW 9.7 mph 24.1 mph 95 % 0.0 in
15:52 9.7 °F 8.9 °F 1023.6 in WNW 16.1 mph 22.5 mph 95 % 0.0 in
15:57 9.7 °F 8.9 °F 1023.2 in West 17.7 mph 22.5 mph 95 % 0.0 in
16:02 9.7 °F 8.9 °F 1023.2 in West 9.7 mph 22.5 mph 95 % 0.0 in
16:07 9.7 °F 8.9 °F 1023.2 in SW 8.0 mph 22.5 mph 95 % 0.0 in
16:12 9.7 °F 9.1 °F 1023.2 in West 9.7 mph 22.5 mph 96 % 0.0 in
16:17 9.7 °F 9.1 °F 1023.2 in West 11.3 mph 17.7 mph 96 % 0.0 in
16:22 9.7 °F 9.1 °F 1023.2 in West 12.9 mph 19.3 mph 96 % 0.0 in
16:27 9.7 °F 9.1 °F 1023.2 in West 8.0 mph 19.3 mph 96 % 0.0 in
16:32 9.8 °F 9.2 °F 1023.2 in WSW 8.0 mph 19.3 mph 96 % 0.0 in
16:37 9.8 °F 9.2 °F 1023.2 in West 9.7 mph 19.3 mph 96 % 0.0 in
16:42 9.8 °F 9.2 °F 1023.2 in WSW 11.3 mph 19.3 mph 96 % 0.0 in
16:52 9.9 °F 9.3 °F 1023.2 in West 12.9 mph 17.7 mph 96 % 0.0 in
16:57 9.9 °F 9.3 °F 1023.2 in West 11.3 mph 16.1 mph 96 % 0.0 in
17:07 9.9 °F 9.3 °F 1023.2 in WSW 6.4 mph 17.7 mph 96 % 0.0 in
17:12 9.9 °F 9.3 °F 1023.2 in WSW 4.8 mph 17.7 mph 96 % 0.0 in
17:17 9.9 °F 9.3 °F 1023.2 in WSW 6.4 mph 16.1 mph 96 % 0.0 in
17:22 9.9 °F 9.3 °F 1023.2 in WSW 6.4 mph 14.5 mph 96 % 0.0 in
17:32 10.0 °F 9.4 °F 1023.2 in West 12.9 mph 16.1 mph 96 % 0.0 in
17:37 10.0 °F 9.4 °F 1023.2 in West 4.8 mph 17.7 mph 96 % 0.0 in
17:42 10.1 °F 9.3 °F 1023.2 in WNW 3.2 mph 17.7 mph 95 % 0.0 in
17:47 10.1 °F 9.3 °F 1023.2 in West 6.4 mph 17.7 mph 95 % 0.0 in
17:52 10.1 °F 9.3 °F 1023.6 in WSW 4.8 mph 12.9 mph 95 % 0.0 in
17:57 10.2 °F 9.4 °F 1023.6 in West 4.8 mph 11.3 mph 95 % 0.0 in
18:02 10.2 °F 9.4 °F 1023.6 in West 3.2 mph 9.7 mph 95 % 0.0 in
18:07 10.3 °F 9.5 °F 1023.6 in WNW 4.8 mph 9.7 mph 95 % 0.0 in
18:12 10.3 °F 9.4 °F 1023.6 in West 6.4 mph 14.5 mph 94 % 0.0 in
18:17 10.4 °F 9.5 °F 1023.6 in WNW 6.4 mph 16.1 mph 94 % 0.0 in
18:22 10.4 °F 9.5 °F 1023.6 in West 6.4 mph 16.1 mph 94 % 0.0 in
18:27 10.4 °F 9.3 °F 1023.6 in WNW 12.9 mph 16.1 mph 93 % 0.0 in
18:32 10.5 °F 9.4 °F 1023.6 in West 11.3 mph 14.5 mph 93 % 0.0 in
18:42 10.5 °F 9.4 °F 1023.6 in West 11.3 mph 14.5 mph 93 % 0.0 in
18:47 10.5 °F 9.4 °F 1023.9 in West 14.5 mph 20.9 mph 93 % 0.0 in
18:52 10.6 °F 9.5 °F 1023.6 in West 9.7 mph 20.9 mph 93 % 0.0 in
18:57 10.6 °F 9.5 °F 1023.9 in WSW 4.8 mph 20.9 mph 93 % 0.0 in
19:02 10.6 °F 9.5 °F 1023.9 in WNW 8.0 mph 20.9 mph 93 % 0.0 in
19:07 10.6 °F 9.5 °F 1023.9 in West 11.3 mph 19.3 mph 93 % 0.0 in
19:12 10.5 °F 9.4 °F 1023.9 in WNW 6.4 mph 19.3 mph 93 % 0.0 in
19:17 10.4 °F 9.3 °F 1024.3 in West 11.3 mph 19.3 mph 93 % 0.0 in
19:22 10.4 °F 9.5 °F 1024.3 in WNW 6.4 mph 17.7 mph 94 % 0.3 in
19:27 10.3 °F 9.4 °F 1024.3 in WNW 6.4 mph 12.9 mph 94 % 0.3 in
19:32 10.3 °F 9.4 °F 1024.3 in WNW 6.4 mph 16.1 mph 94 % 0.5 in
19:37 10.3 °F 9.4 °F 1024.3 in WNW 3.2 mph 16.1 mph 94 % 0.5 in
19:42 10.3 °F 9.4 °F 1024.3 in WNW 6.4 mph 16.1 mph 94 % 0.5 in
19:47 10.4 °F 9.5 °F 1024.3 in West 9.7 mph 16.1 mph 94 % 0.5 in
19:52 10.4 °F 9.5 °F 1024.3 in WNW 6.4 mph 16.1 mph 94 % 0.5 in
19:57 10.5 °F 9.4 °F 1024.3 in WNW 6.4 mph 16.1 mph 93 % 0.5 in
20:02 10.5 °F 9.4 °F 1024.3 in WNW 9.7 mph 16.1 mph 93 % 0.5 in
20:07 10.5 °F 9.4 °F 1024.3 in WNW 6.4 mph 16.1 mph 93 % 0.5 in
20:12 10.5 °F 9.4 °F 1024.3 in West 3.2 mph 14.5 mph 93 % 0.5 in
20:17 10.5 °F 9.4 °F 1024.3 in WNW 4.8 mph 14.5 mph 93 % 0.5 in
20:22 10.4 °F 9.2 °F 1024.3 in WNW 4.8 mph 14.5 mph 92 % 0.3 in
20:32 10.4 °F 9.3 °F 1024.6 in Calm   11.3 mph 93 % 0.0 in
20:37 10.4 °F 9.3 °F 1024.3 in WNW 4.8 mph 11.3 mph 93 % 0.0 in
20:42 10.4 °F 9.3 °F 1024.3 in West 3.2 mph 11.3 mph 93 % 0.0 in
20:47 10.3 °F 9.2 °F 1024.3 in WSW 1.6 mph 11.3 mph 93 % 0.0 in
20:52 10.3 °F 9.2 °F 1024.3 in Calm   8.0 mph 93 % 0.0 in
21:02 10.3 °F 9.2 °F 1024.6 in WNW 3.2 mph 6.4 mph 93 % 0.0 in
21:12 10.3 °F 9.2 °F 1024.6 in West 1.6 mph 8.0 mph 93 % 0.0 in
21:17 10.2 °F 9.1 °F 1024.6 in West 1.6 mph 8.0 mph 93 % 0.0 in
21:22 10.2 °F 9.1 °F 1024.6 in West 1.6 mph 8.0 mph 93 % 0.0 in
21:27 10.2 °F 9.1 °F 1024.6 in WNW 4.8 mph 9.7 mph 93 % 0.0 in
21:32 10.3 °F 9.2 °F 1024.6 in WNW 6.4 mph 9.7 mph 93 % 0.0 in
21:37 10.4 °F 9.3 °F 1024.6 in West 9.7 mph 11.3 mph 93 % 0.0 in
21:42 10.4 °F 9.3 °F 1024.6 in WNW 4.8 mph 12.9 mph 93 % 0.0 in
21:47 10.3 °F 9.2 °F 1024.6 in NW 8.0 mph 12.9 mph 93 % 0.0 in
21:52 10.3 °F 9.2 °F 1024.9 in WNW 3.2 mph 12.9 mph 93 % 0.0 in
21:57 10.3 °F 9.1 °F 1024.9 in WNW 6.4 mph 12.9 mph 92 % 0.0 in
22:02 10.2 °F 8.6 °F 1024.9 in NNW 6.4 mph 16.1 mph 90 % 0.0 in
22:07 10.2 °F 8.3 °F 1024.9 in NW 4.8 mph 19.3 mph 88 % 0.0 in
22:12 10.1 °F 8.0 °F 1024.6 in NW 8.0 mph 19.3 mph 87 % 0.0 in
22:17 10.1 °F 8.0 °F 1024.6 in NW 6.4 mph 19.3 mph 87 % 0.0 in
22:22 10.1 °F 8.0 °F 1024.6 in NW 1.6 mph 19.3 mph 87 % 0.0 in
22:27 10.0 °F 7.9 °F 1024.6 in WNW 4.8 mph 19.3 mph 87 % 0.0 in
22:37 9.9 °F 7.7 °F 1024.6 in NNW 4.8 mph 16.1 mph 86 % 0.0 in
22:42 9.8 °F 7.7 °F 1024.6 in NW 4.8 mph 16.1 mph 87 % 0.0 in
22:47 9.7 °F 7.6 °F 1024.6 in WNW 6.4 mph 16.1 mph 87 % 0.0 in
22:52 9.7 °F 7.8 °F 1024.6 in WNW 6.4 mph 16.1 mph 88 % 0.0 in
22:57 9.6 °F 7.7 °F 1024.6 in NW 3.2 mph 12.9 mph 88 % 0.0 in
23:02 9.5 °F 7.8 °F 1024.6 in WNW 6.4 mph 12.9 mph 89 % 0.0 in
23:07 9.4 °F 7.7 °F 1024.6 in NW 9.7 mph 11.3 mph 89 % 0.0 in
23:12 9.4 °F 7.7 °F 1024.6 in NW 4.8 mph 17.7 mph 89 % 0.0 in
23:22 9.4 °F 7.5 °F 1024.6 in West 1.6 mph 17.7 mph 88 % 0.0 in
23:27 9.3 °F 7.4 °F 1024.6 in NW 6.4 mph 12.9 mph 88 % 0.0 in
23:32 9.3 °F 7.4 °F 1024.6 in WNW 8.0 mph 17.7 mph 88 % 0.0 in
23:37 9.3 °F 7.2 °F 1024.6 in NW 3.2 mph 17.7 mph 87 % 0.0 in
23:42 9.2 °F 7.1 °F 1024.6 in WNW 3.2 mph 17.7 mph 87 % 0.0 in
23:47 9.2 °F 7.0 °F 1024.6 in WNW 11.3 mph 14.5 mph 86 % 0.0 in
23:52 9.2 °F 6.8 °F 1024.6 in WNW 8.0 mph 14.5 mph 85 % 0.0 in
23:57 9.2 °F 6.8 °F 1024.6 in NW 6.4 mph 14.5 mph 85 % 0.0 in
Meteo18
Compliments of Weather Underground - 4 mb

Script developed by  Jim McMurry - jmcmurry@mwt.net Adapted for the template by  Wim van der Kuil - Leuven-Template.eu

You find our weather info also at:

European Weather Network

Weather Underground

Equipment we use:

Weather-station
Davis Vue

Weather-program
Meteobridge

Weather-server
Raspberry PI 2 B+

Provider
1 and 1

Davis Vue

Meteobridge

Raspberry PI 2 B+

1 and 1